Edam, Canada
Current Conditions -  °F | °C
As of 12:00 PM on Monday 22 Dec 2014 (Local Time) from CYQW Reporting Station
Light Snow Light Snow  
Wind Chill: 10°   Ceiling: 6000
Heat Index: 19°   Visibility: 9mi
Dew Point: 19°   Wind: 7mph
Humidity: 100%   Direction: 320°NW
Pressure: 29.81"   Gusts: NA
Location:  53.18°N, 108.77°W
Report Text: CYQW 221800Z AUTO 32006KT 9SM -SN OVC060 M07/M07 A2981 RMK SLP132
Loading
Personal Weather Stations






























Interactive Weather Map New forecast layout! Learn more

10-Day Weather Forecast

Advertisements
Track Severe Weather on mobile